CL-SC49 weather

Oficina Victoria Airport
Oficina Victoria, Tarapac√° Region, Chile

Public forecast

Using degrees Celsius for public forecast. Weather courtesy of forecast.io.

Closest aviation weather report (METAR) to Oficina Victoria Airport

Closest report is Diego Aracena Airport, 33.4 nm (61.9 km) WNW. Retrieved 2020/05/27 02:00 UTC (42 minutes ago):

SCDA 270200Z VRB01KT 9999 OVC021 18/14 Q1014

Closest aviation forecast (TAF) to Oficina Victoria Airport

Closest forecast is Diego Aracena Airport, 33.4 nm (61.9 km) WNW. Retrieved 2020-05-27 00:00 UTC (3 hours ago):

TAF SCDA 262236Z 2700/2724 23004KT CAVOK TN17/2706Z TX20/2719Z BECMG 2701/2702 OVC025 BECMG 2703/2705 33004KT BECMG 2716/2718 29012KT CAVOK BECMG 2723/2724 23004KT OVC025